createdAt,value
2022-11-13T00:01:54.811Z,96134.81
2022-11-13T00:04:42.682Z,96126.41
2022-11-13T00:07:29.568Z,96113.16
2022-11-13T00:10:17.020Z,96115.69
2022-11-13T00:13:03.302Z,96116.06
2022-11-13T00:15:57.933Z,96129.84
2022-11-13T00:18:44.727Z,96104.41
2022-11-13T00:21:33.179Z,96104.56
2022-11-13T00:24:19.670Z,96097.47
2022-11-13T00:27:06.058Z,96098.13
2022-11-13T00:29:52.595Z,96096.31
2022-11-13T00:32:40.161Z,96102.03
2022-11-13T00:35:26.465Z,96100.06
2022-11-13T00:38:14.336Z,96092.19
2022-11-13T00:41:01.481Z,96090.41
2022-11-13T00:43:48.197Z,96091.88
2022-11-13T00:46:34.810Z,96089.22
2022-11-13T00:49:21.075Z,96091.50
2022-11-13T00:52:07.637Z,96091.44
2022-11-13T00:54:55.648Z,96089.34
2022-11-13T00:57:42.072Z,96077.97
2022-11-13T01:00:28.505Z,96092.28
2022-11-13T01:03:16.382Z,96091.66
2022-11-13T01:06:09.950Z,96076.50
2022-11-13T01:08:57.072Z,96074.38
2022-11-13T01:11:44.935Z,96069.03
2022-11-13T01:14:31.173Z,96065.81
2022-11-13T01:17:17.748Z,96071.56
2022-11-13T01:20:05.372Z,96059.44
2022-11-13T01:22:52.175Z,96059.69
2022-11-13T01:25:38.761Z,96052.22
2022-11-13T01:28:26.664Z,96052.88
2022-11-13T01:31:16.718Z,96057.56
2022-11-13T01:34:02.962Z,96044.19
2022-11-13T01:36:49.715Z,96045.78
2022-11-13T01:39:36.177Z,96045.41
2022-11-13T01:42:22.416Z,96034.69
2022-11-13T01:45:42.415Z,96025.69
2022-11-13T01:48:35.654Z,96026.22
2022-11-13T01:51:27.242Z,96033.41
2022-11-13T01:54:17.859Z,96047.31
2022-11-13T01:57:05.573Z,96038.81
2022-11-13T01:59:56.564Z,96051.56
2022-11-13T02:02:42.904Z,96038.81
2022-11-13T02:05:31.153Z,96047.72
2022-11-13T02:08:17.712Z,96044.97
2022-11-13T02:11:04.602Z,96045.75
2022-11-13T02:13:51.280Z,96038.81
2022-11-13T02:16:38.957Z,96037.22
2022-11-13T02:19:29.145Z,96041.81
2022-11-13T02:22:27.063Z,96034.16
2022-11-13T02:25:15.737Z,96038.88
2022-11-13T02:28:02.740Z,96028.47
2022-11-13T02:30:49.406Z,96019.81
2022-11-13T02:33:36.429Z,96021.91
2022-11-13T02:36:26.447Z,96017.94
2022-11-13T02:39:14.794Z,96011.66
2022-11-13T02:42:02.568Z,96009.09
2022-11-13T02:44:48.729Z,96003.56
2022-11-13T02:47:35.825Z,95999.22
2022-11-13T02:50:22.499Z,95998.69
2022-11-13T02:53:08.897Z,95996.22
2022-11-13T02:55:55.419Z,95986.84
2022-11-13T02:58:43.591Z,95985.63
2022-11-13T03:01:30.356Z,95990.44
2022-11-13T03:04:17.158Z,95980.75
2022-11-13T03:07:04.096Z,95986.44
2022-11-13T03:09:50.916Z,95966.97
2022-11-13T03:12:37.712Z,95967.41
2022-11-13T03:15:25.753Z,95966.16
2022-11-13T03:18:15.049Z,95960.25
2022-11-13T03:21:08.222Z,95964.16
2022-11-13T03:23:55.498Z,95954.47
2022-11-13T03:26:42.041Z,95959.03
2022-11-13T03:29:28.263Z,95963.47
2022-11-13T03:32:16.430Z,95955.47
2022-11-13T03:35:02.816Z,95957.50
2022-11-13T03:37:49.439Z,95950.47
2022-11-13T03:40:35.847Z,95954.25
2022-11-13T03:43:22.235Z,95942.25
2022-11-13T03:46:08.860Z,95930.38
2022-11-13T03:48:56.932Z,95921.34
2022-11-13T03:51:43.315Z,95909.22
2022-11-13T03:54:29.636Z,95915.75
2022-11-13T03:57:16.533Z,95917.91
2022-11-13T04:00:05.669Z,95901.97
2022-11-13T04:02:52.122Z,95906.91
2022-11-13T04:05:40.703Z,95906.31
2022-11-13T04:08:27.381Z,95909.56
2022-11-13T04:11:14.651Z,95902.13
2022-11-13T04:14:01.237Z,95903.16
2022-11-13T04:16:47.694Z,95905.78
2022-11-13T04:19:34.420Z,95911.31
2022-11-13T04:22:22.229Z,95910.41
2022-11-13T04:25:09.823Z,95895.16
2022-11-13T04:27:56.766Z,95898.50
2022-11-13T04:30:43.380Z,95894.28
2022-11-13T04:33:29.948Z,95886.72
2022-11-13T04:36:16.248Z,95891.97
2022-11-13T04:39:04.715Z,95883.19
2022-11-13T04:42:08.958Z,95892.09
2022-11-13T04:44:55.455Z,95887.03
2022-11-13T04:47:42.156Z,95882.25
2022-11-13T04:50:28.744Z,95882.06
2022-11-13T04:53:15.180Z,95863.03
2022-11-13T04:56:03.023Z,95878.81
2022-11-13T04:58:49.577Z,95872.41
2022-11-13T05:01:37.084Z,95869.28
2022-11-13T05:04:23.595Z,95875.22
2022-11-13T05:07:09.730Z,95868.56
2022-11-13T05:09:56.095Z,95865.16
2022-11-13T05:12:44.117Z,95864.66
2022-11-13T05:15:30.509Z,95854.47
2022-11-13T05:18:17.085Z,95854.97
2022-11-13T05:21:03.840Z,95859.66
2022-11-13T05:23:50.212Z,95851.09
2022-11-13T05:26:38.555Z,95846.00
2022-11-13T05:29:26.475Z,95844.63
2022-11-13T05:32:13.251Z,95844.41
2022-11-13T05:34:59.384Z,95842.03
2022-11-13T05:37:45.919Z,95841.00
2022-11-13T05:40:32.500Z,95834.78
2022-11-13T05:43:18.756Z,95836.97
2022-11-13T05:46:08.543Z,95824.38
2022-11-13T05:48:59.603Z,95827.59
2022-11-13T05:51:45.955Z,95831.59
2022-11-13T05:54:32.353Z,95818.81
2022-11-13T05:57:20.136Z,95824.91
2022-11-13T06:00:08.306Z,95817.50
2022-11-13T06:02:56.256Z,95822.06
2022-11-13T06:05:42.573Z,95808.50
2022-11-13T06:08:29.281Z,95817.28
2022-11-13T06:11:17.075Z,95805.59
2022-11-13T06:14:03.447Z,95806.44
2022-11-13T06:16:50.176Z,95804.81
2022-11-13T06:19:37.804Z,95803.03
2022-11-13T06:22:24.076Z,95810.59
2022-11-13T06:25:10.855Z,95790.94
2022-11-13T06:27:57.253Z,95800.38
2022-11-13T06:30:43.744Z,95789.56
2022-11-13T06:33:30.051Z,95787.50
2022-11-13T06:36:21.554Z,95785.84
2022-11-13T06:39:09.457Z,95753.16
2022-11-13T06:41:56.237Z,95750.16
2022-11-13T06:44:42.723Z,95760.25
2022-11-13T06:47:29.751Z,95773.63
2022-11-13T06:50:16.077Z,95765.94
2022-11-13T06:53:03.971Z,95763.38
2022-11-13T06:55:51.799Z,95756.34
2022-11-13T06:58:38.789Z,95753.59
2022-11-13T07:01:26.904Z,95750.97
2022-11-13T07:04:13.839Z,95733.63
2022-11-13T07:07:03.115Z,95719.56
2022-11-13T07:09:50.887Z,95734.19
2022-11-13T07:12:37.763Z,95733.41
2022-11-13T07:15:23.948Z,95731.44
2022-11-13T07:18:10.493Z,95736.00
2022-11-13T07:20:57.285Z,95717.25
2022-11-13T07:23:44.507Z,95729.34
2022-11-13T07:26:32.527Z,95719.13
2022-11-13T07:29:18.765Z,95710.69
2022-11-13T07:32:05.965Z,95716.31
2022-11-13T07:34:52.554Z,95723.78
2022-11-13T07:37:39.089Z,95726.78
2022-11-13T07:40:25.760Z,95740.44
2022-11-13T07:43:13.757Z,95750.81
2022-11-13T07:46:00.234Z,95756.56
2022-11-13T07:48:46.884Z,95764.53
2022-11-13T07:51:33.385Z,95778.53
2022-11-13T07:54:19.656Z,95778.94
2022-11-13T07:57:06.177Z,95777.00
2022-11-13T07:59:56.190Z,95787.59
2022-11-13T08:02:44.957Z,95789.25
2022-11-13T08:05:31.820Z,95790.63
2022-11-13T08:08:18.234Z,95787.34
2022-11-13T08:11:06.871Z,95775.53
2022-11-13T08:13:53.287Z,95778.72
2022-11-13T08:16:40.959Z,95766.25
2022-11-13T08:19:27.187Z,95767.31
2022-11-13T08:22:13.844Z,95753.53
2022-11-13T08:25:00.519Z,95743.78
2022-11-13T08:27:47.247Z,95745.28
2022-11-13T08:30:33.798Z,95741.41
2022-11-13T08:33:21.784Z,95744.56
2022-11-13T08:36:09.811Z,95744.13
2022-11-13T08:38:56.251Z,95739.19
2022-11-13T08:41:42.682Z,95739.47
2022-11-13T08:44:29.184Z,95745.97
2022-11-13T08:47:16.119Z,95751.78
2022-11-13T08:50:04.060Z,95745.13
2022-11-13T08:52:55.242Z,95739.75
2022-11-13T08:55:41.946Z,95725.53
2022-11-13T08:58:28.890Z,95726.75
2022-11-13T09:01:16.836Z,95725.50
2022-11-13T09:04:03.677Z,95723.59
2022-11-13T09:06:51.230Z,95733.81
2022-11-13T09:09:37.801Z,95724.75
2022-11-13T09:12:24.131Z,95722.50
2022-11-13T09:15:12.339Z,95741.03
2022-11-13T09:18:07.376Z,95744.19
2022-11-13T09:20:53.892Z,95746.59
2022-11-13T09:23:41.891Z,95732.88
2022-11-13T09:26:28.228Z,95748.13
2022-11-13T09:29:14.870Z,95745.38
2022-11-13T09:32:01.528Z,95731.44
2022-11-13T09:34:48.232Z,95725.56
2022-11-13T09:37:35.243Z,95733.00
2022-11-13T09:40:30.432Z,95734.81
2022-11-13T09:43:29.809Z,95720.94
2022-11-13T09:46:22.869Z,95716.19
2022-11-13T09:49:16.520Z,95713.44
2022-11-13T09:52:11.487Z,95700.16
2022-11-13T09:54:57.990Z,95703.19
2022-11-13T09:57:52.629Z,95695.09
2022-11-13T10:00:39.453Z,95692.06
2022-11-13T10:07:05.228Z,95696.03
2022-11-13T10:10:06.668Z,95697.81
2022-11-13T10:12:57.360Z,95690.66
2022-11-13T10:15:47.357Z,95685.53
2022-11-13T10:18:38.869Z,95672.00
2022-11-13T10:21:33.543Z,95670.25
2022-11-13T10:24:25.795Z,95684.53
2022-11-13T10:27:14.339Z,95672.97
2022-11-13T10:30:03.028Z,95661.47
2022-11-13T10:32:50.027Z,95658.38
2022-11-13T10:35:57.405Z,95657.94
2022-11-13T10:38:46.253Z,95663.59
2022-11-13T10:41:33.406Z,95658.09
2022-11-13T10:44:22.982Z,95653.09
2022-11-13T10:47:26.480Z,95641.78
2022-11-13T10:50:22.653Z,95639.13
2022-11-13T10:53:17.306Z,95636.09
2022-11-13T10:56:15.591Z,95618.75
2022-11-13T10:59:04.751Z,95620.63
2022-11-13T11:01:51.744Z,95624.31
2022-11-13T11:04:43.113Z,95612.16
2022-11-13T11:07:30.199Z,95625.59
2022-11-13T11:10:28.494Z,95603.09
2022-11-13T11:13:23.891Z,95601.50
2022-11-13T11:16:15.272Z,95589.53
2022-11-13T11:19:05.582Z,95586.44
2022-11-13T11:22:10.754Z,95593.25
2022-11-13T11:25:02.771Z,95595.19
2022-11-13T11:27:57.441Z,95591.41
2022-11-13T11:30:50.932Z,95579.94
2022-11-13T11:33:44.304Z,95580.66
2022-11-13T11:36:36.104Z,95570.44
2022-11-13T11:39:32.036Z,95567.00
2022-11-13T11:42:26.763Z,95548.50
2022-11-13T11:45:17.434Z,95556.16
2022-11-13T11:48:07.221Z,95549.84
2022-11-13T11:51:02.437Z,95534.22
2022-11-13T11:53:59.437Z,95524.47
2022-11-13T11:56:52.299Z,95526.31
2022-11-13T12:03:34.569Z,95510.94
2022-11-13T12:06:31.295Z,95509.81
2022-11-13T12:09:27.967Z,95510.53
2022-11-13T12:12:26.045Z,95500.50
2022-11-13T12:15:21.551Z,95522.16
2022-11-13T12:18:15.666Z,95509.81
2022-11-13T12:21:12.608Z,95499.97
2022-11-13T12:24:18.958Z,95512.59
2022-11-13T12:27:18.940Z,95508.22
2022-11-13T12:30:15.173Z,95512.03
2022-11-13T12:33:17.484Z,95497.91
2022-11-13T12:36:05.130Z,95487.22
2022-11-13T12:39:01.143Z,95477.56
2022-11-13T12:41:54.749Z,95468.78
2022-11-13T12:44:50.676Z,95462.13
2022-11-13T12:47:39.110Z,95465.63
2022-11-13T12:50:32.063Z,95472.03
2022-11-13T12:53:27.327Z,95462.91
2022-11-13T12:56:19.512Z,95475.63
2022-11-13T12:59:30.487Z,95476.19
2022-11-13T13:02:49.268Z,95477.03
2022-11-13T13:05:58.463Z,95473.88
2022-11-13T13:09:01.931Z,95459.09
2022-11-13T13:11:59.528Z,95446.44
2022-11-13T13:15:08.593Z,95442.25
2022-11-13T13:18:06.186Z,95425.81
2022-11-13T13:21:03.050Z,95429.22
2022-11-13T13:23:51.407Z,95424.34
2022-11-13T13:26:46.301Z,95420.31
2022-11-13T13:29:34.991Z,95435.13
2022-11-13T13:32:27.477Z,95441.28
2022-11-13T13:35:19.163Z,95433.38
2022-11-13T13:38:16.353Z,95423.88
2022-11-13T13:41:18.113Z,95413.84
2022-11-13T13:44:20.883Z,95411.06
2022-11-13T13:47:16.017Z,95403.16
2022-11-13T13:50:05.604Z,95404.41
2022-11-13T13:52:55.996Z,95399.44
2022-11-13T13:55:49.268Z,95389.53
2022-11-13T13:58:38.013Z,95387.75
2022-11-13T14:01:29.227Z,95397.81
2022-11-13T14:04:19.704Z,95388.72
2022-11-13T14:07:20.786Z,95387.94
2022-11-13T14:10:15.831Z,95397.41
2022-11-13T14:13:02.996Z,95398.22
2022-11-13T14:15:49.499Z,95394.13
2022-11-13T14:18:36.751Z,95379.47
2022-11-13T14:21:25.000Z,95383.22
2022-11-13T14:24:17.507Z,95376.88
2022-11-13T14:27:09.514Z,95366.00
2022-11-13T14:29:59.664Z,95372.28
2022-11-13T14:32:47.398Z,95358.84
2022-11-13T14:35:33.985Z,95367.31
2022-11-13T14:38:23.333Z,95357.44
2022-11-13T14:41:21.508Z,95365.84
2022-11-13T14:44:11.745Z,95370.25
2022-11-13T14:47:02.684Z,95363.41
2022-11-13T14:49:49.219Z,95360.66
2022-11-13T14:52:35.738Z,95366.66
2022-11-13T14:55:23.794Z,95365.56
2022-11-13T14:58:14.566Z,95360.34
2022-11-13T15:01:15.685Z,95354.84
2022-11-13T15:04:02.503Z,95342.38
2022-11-13T15:06:50.848Z,95333.66
2022-11-13T15:09:37.108Z,95342.13
2022-11-13T15:12:23.547Z,95333.91
2022-11-13T15:15:15.191Z,95339.56
2022-11-13T15:18:03.575Z,95332.16
2022-11-13T15:20:50.118Z,95338.13
2022-11-13T15:23:36.889Z,95335.03
2022-11-13T15:26:24.118Z,95324.84
2022-11-13T15:29:11.007Z,95322.78
2022-11-13T15:31:58.558Z,95329.84
2022-11-13T15:34:46.632Z,95322.69
2022-11-13T15:37:33.504Z,95321.06
2022-11-13T15:40:20.105Z,95318.13
2022-11-13T15:43:07.198Z,95322.75
2022-11-13T15:45:53.425Z,95325.66
2022-11-13T15:48:40.103Z,95315.88
2022-11-13T15:51:33.188Z,95310.69
2022-11-13T15:54:26.263Z,95297.91
2022-11-13T15:57:19.174Z,95303.28
2022-11-13T16:00:13.627Z,95315.97
2022-11-13T16:03:00.052Z,95310.47
2022-11-13T16:05:46.714Z,95314.53
2022-11-13T16:08:34.645Z,95325.00
2022-11-13T16:11:21.964Z,95318.66
2022-11-13T16:14:08.976Z,95310.41
2022-11-13T16:16:55.781Z,95305.94
2022-11-13T16:19:43.411Z,95325.38
2022-11-13T16:22:30.231Z,95317.78
2022-11-13T16:25:21.162Z,95318.31
2022-11-13T16:28:16.385Z,95310.53
2022-11-13T16:31:03.647Z,95306.09
2022-11-13T16:33:51.112Z,95299.72
2022-11-13T16:36:37.736Z,95297.88
2022-11-13T16:39:24.512Z,95299.78
2022-11-13T16:42:12.873Z,95291.72
2022-11-13T16:44:59.241Z,95292.34
2022-11-13T16:47:46.545Z,95297.13
2022-11-13T16:50:36.913Z,95305.22
2022-11-13T16:53:23.357Z,95300.47
2022-11-13T16:56:14.834Z,95290.13
2022-11-13T16:59:02.626Z,95286.50
2022-11-13T17:01:49.090Z,95291.78
2022-11-13T17:04:35.583Z,95285.56
2022-11-13T17:07:22.866Z,95284.16
2022-11-13T17:13:19.275Z,95282.56
2022-11-13T17:16:07.478Z,95280.81
2022-11-13T17:18:54.793Z,95280.00
2022-11-13T17:21:44.237Z,95273.19
2022-11-13T17:24:31.121Z,95279.06
2022-11-13T17:27:18.501Z,95275.84
2022-11-13T17:30:05.615Z,95273.19
2022-11-13T17:32:58.862Z,95256.81
2022-11-13T17:35:46.440Z,95266.66
2022-11-13T17:38:33.524Z,95261.44
2022-11-13T17:41:19.708Z,95274.59
2022-11-13T17:44:06.327Z,95285.44
2022-11-13T17:46:53.838Z,95288.28
2022-11-13T17:49:41.561Z,95282.88
2022-11-13T17:52:28.683Z,95279.69
2022-11-13T17:55:15.407Z,95284.75
2022-11-13T17:58:02.849Z,95286.34
2022-11-13T18:00:49.631Z,95288.09
2022-11-13T18:03:36.427Z,95287.63
2022-11-13T18:06:25.399Z,95284.78
2022-11-13T18:09:12.458Z,95285.41
2022-11-13T18:11:58.820Z,95279.19
2022-11-13T18:14:52.258Z,95290.00
2022-11-13T18:17:39.040Z,95290.66
2022-11-13T18:20:25.751Z,95281.28
2022-11-13T18:23:13.591Z,95286.84
2022-11-13T18:26:07.691Z,95296.56
2022-11-13T18:28:53.929Z,95285.75
2022-11-13T18:31:40.627Z,95296.88
2022-11-13T18:34:28.484Z,95288.13
2022-11-13T18:37:15.005Z,95288.56
2022-11-13T18:40:03.226Z,95273.78
2022-11-13T18:42:50.992Z,95268.72
2022-11-13T18:45:37.444Z,95284.28
2022-11-13T18:48:23.759Z,95282.19
2022-11-13T18:51:13.373Z,95269.19
2022-11-13T18:53:59.884Z,95272.25
2022-11-13T18:56:47.699Z,95278.09
2022-11-13T18:59:34.441Z,95278.91
2022-11-13T19:02:21.252Z,95285.56
2022-11-13T19:05:07.826Z,95274.44
2022-11-13T19:07:54.061Z,95282.41
2022-11-13T19:10:42.031Z,95283.16
2022-11-13T19:13:29.789Z,95284.44
2022-11-13T19:16:18.958Z,95295.88
2022-11-13T19:19:07.962Z,95293.03
2022-11-13T19:21:54.341Z,95281.59
2022-11-13T19:24:40.742Z,95280.94
2022-11-13T19:27:27.072Z,95277.16
2022-11-13T19:30:15.317Z,95271.56
2022-11-13T19:33:01.938Z,95270.78
2022-11-13T19:35:48.287Z,95271.59
2022-11-13T19:38:34.786Z,95275.19
2022-11-13T19:41:21.768Z,95274.56
2022-11-13T19:44:10.352Z,95269.47
2022-11-13T19:46:58.205Z,95260.22
2022-11-13T19:49:44.900Z,95256.00
2022-11-13T19:52:31.388Z,95264.50
2022-11-13T19:55:17.882Z,95271.81
2022-11-13T19:58:04.317Z,95273.75
2022-11-13T20:00:51.097Z,95260.91
2022-11-13T20:03:39.057Z,95268.25
2022-11-13T20:06:26.967Z,95259.19
2022-11-13T20:09:13.265Z,95266.81
2022-11-13T20:12:00.073Z,95260.41
2022-11-13T20:14:46.708Z,95255.66
2022-11-13T20:17:33.182Z,95252.75
2022-11-13T20:20:20.883Z,95247.88
2022-11-13T20:23:07.310Z,95244.41
2022-11-13T20:25:55.115Z,95244.53
2022-11-13T20:28:41.500Z,95245.50
2022-11-13T20:31:28.567Z,95239.69
2022-11-13T20:34:15.648Z,95239.97
2022-11-13T20:37:03.664Z,95236.31
2022-11-13T20:39:50.039Z,95236.97
2022-11-13T20:42:36.772Z,95227.88
2022-11-13T20:45:22.904Z,95235.44
2022-11-13T20:48:09.592Z,95228.47
2022-11-13T20:50:56.223Z,95239.84
2022-11-13T20:53:44.433Z,95245.41
2022-11-13T20:56:30.975Z,95248.50
2022-11-13T20:59:17.493Z,95243.69
2022-11-13T21:02:04.171Z,95245.00
2022-11-13T21:04:50.621Z,95245.97
2022-11-13T21:07:37.319Z,95248.69
2022-11-13T21:10:25.194Z,95239.31
2022-11-13T21:13:11.304Z,95240.28
2022-11-13T21:15:57.793Z,95254.59
2022-11-13T21:18:44.378Z,95255.38
2022-11-13T21:21:31.743Z,95245.84
2022-11-13T21:24:18.507Z,95258.25
2022-11-13T21:27:06.473Z,95259.84
2022-11-13T21:29:53.830Z,95255.22
2022-11-13T21:32:40.916Z,95242.22
2022-11-13T21:35:28.021Z,95246.34
2022-11-13T21:38:14.482Z,95238.88
2022-11-13T21:41:15.532Z,95228.81
2022-11-13T21:44:05.636Z,95222.16
2022-11-13T21:46:52.191Z,95215.63
2022-11-13T21:49:38.698Z,95220.03
2022-11-13T21:52:25.098Z,95233.75
2022-11-13T21:55:11.382Z,95235.22
2022-11-13T21:57:57.920Z,95231.56
2022-11-13T22:00:45.925Z,95226.47
2022-11-13T22:03:33.040Z,95221.88
2022-11-13T22:06:21.989Z,95210.91
2022-11-13T22:09:15.169Z,95200.72
2022-11-13T22:12:01.775Z,95204.06
2022-11-13T22:14:48.092Z,95223.00
2022-11-13T22:17:35.889Z,95218.69
2022-11-13T22:20:22.473Z,95225.19
2022-11-13T22:23:09.321Z,95216.47
2022-11-13T22:26:00.608Z,95229.00
2022-11-13T22:28:51.548Z,95233.13
2022-11-13T22:31:38.256Z,95227.25
2022-11-13T22:34:25.883Z,95236.00
2022-11-13T22:37:12.447Z,95230.59
2022-11-13T22:39:58.900Z,95223.75
2022-11-13T22:42:45.257Z,95221.06
2022-11-13T22:45:33.944Z,95227.75
2022-11-13T22:48:20.268Z,95219.00
2022-11-13T22:51:12.569Z,95210.25
2022-11-13T22:54:01.105Z,95224.88
2022-11-13T22:56:47.789Z,95221.22
2022-11-13T22:59:34.516Z,95218.06
2022-11-13T23:02:20.762Z,95233.63
2022-11-13T23:05:10.087Z,95223.78
2022-11-13T23:07:58.331Z,95229.19
2022-11-13T23:10:44.651Z,95218.53
2022-11-13T23:13:30.855Z,95224.91
2022-11-13T23:16:18.283Z,95215.34
2022-11-13T23:19:05.475Z,95205.19
2022-11-13T23:21:52.049Z,95209.81
2022-11-13T23:24:40.110Z,95199.47
2022-11-13T23:27:26.716Z,95188.69
2022-11-13T23:30:13.535Z,95174.56
2022-11-13T23:32:59.867Z,95184.06
2022-11-13T23:35:46.670Z,95195.00
2022-11-13T23:38:32.928Z,95199.78
2022-11-13T23:41:20.823Z,95197.72
2022-11-13T23:44:09.099Z,95192.78
2022-11-13T23:46:56.541Z,95194.38
2022-11-13T23:49:43.172Z,95201.06
2022-11-13T23:52:29.430Z,95202.78
2022-11-13T23:55:16.994Z,95181.53
2022-11-13T23:58:06.271Z,95180.56
